sensor_id;sensor_type;location;lat;lon;timestamp;pressure;altitude;pressure_sealevel;temperature;humidity
45255;BME280;30989;52.078;21.014;2023-03-21T00:01:56;165706.72;;;7.46;100.00
45255;BME280;30989;52.078;21.014;2023-03-21T00:04:23;165701.38;;;7.43;100.00
45255;BME280;30989;52.078;21.014;2023-03-21T00:06:49;165701.38;;;7.43;100.00
45255;BME280;30989;52.078;21.014;2023-03-21T00:09:16;165690.69;;;7.39;100.00
45255;BME280;30989;52.078;21.014;2023-03-21T00:11:41;165685.34;;;7.37;100.00
45255;BME280;30989;52.078;21.014;2023-03-21T00:14:07;165690.69;;;7.39;100.00
45255;BME280;30989;52.078;21.014;2023-03-21T00:16:33;165692.00;;;7.40;100.00
45255;BME280;30989;52.078;21.014;2023-03-21T00:19:00;165690.69;;;7.39;100.00
45255;BME280;30989;52.078;21.014;2023-03-21T00:21:31;165682.66;;;7.36;100.00
45255;BME280;30989;52.078;21.014;2023-03-21T00:23:59;165696.03;;;7.41;100.00
45255;BME280;30989;52.078;21.014;2023-03-21T00:26:25;165684.00;;;7.37;100.00
45255;BME280;30989;52.078;21.014;2023-03-21T00:28:50;165688.00;;;7.38;100.00
45255;BME280;30989;52.078;21.014;2023-03-21T00:31:19;165688.00;;;7.38;100.00
45255;BME280;30989;52.078;21.014;2023-03-21T00:33:44;165680.00;;;7.35;100.00
45255;BME280;30989;52.078;21.014;2023-03-21T00:36:11;165671.97;;;7.32;100.00
45255;BME280;30989;52.078;21.014;2023-03-21T00:38:37;165663.94;;;7.29;100.00
45255;BME280;30989;52.078;21.014;2023-03-21T00:41:07;165663.94;;;7.29;100.00
45255;BME280;30989;52.078;21.014;2023-03-21T00:43:34;165669.28;;;7.31;100.00
45255;BME280;30989;52.078;21.014;2023-03-21T00:46:00;165669.28;;;7.31;100.00
45255;BME280;30989;52.078;21.014;2023-03-21T00:48:26;165666.63;;;7.30;100.00
45255;BME280;30989;52.078;21.014;2023-03-21T00:50:53;165662.63;;;7.29;100.00
45255;BME280;30989;52.078;21.014;2023-03-21T00:53:20;165655.94;;;7.26;100.00
45255;BME280;30989;52.078;21.014;2023-03-21T00:55:46;165651.91;;;7.25;100.00
45255;BME280;30989;52.078;21.014;2023-03-21T00:58:13;165649.25;;;7.24;100.00
45255;BME280;30989;52.078;21.014;2023-03-21T01:00:39;165642.56;;;7.21;100.00
45255;BME280;30989;52.078;21.014;2023-03-21T01:03:06;165639.91;;;7.20;100.00
45255;BME280;30989;52.078;21.014;2023-03-21T01:05:37;165639.91;;;7.20;100.00
45255;BME280;30989;52.078;21.014;2023-03-21T01:08:37;165617.19;;;7.11;100.00
45255;BME280;30989;52.078;21.014;2023-03-21T01:11:06;165639.91;;;7.20;100.00
45255;BME280;30989;52.078;21.014;2023-03-21T01:13:32;165639.91;;;7.20;100.00
45255;BME280;30989;52.078;21.014;2023-03-21T01:15:59;165615.84;;;7.11;100.00
45255;BME280;30989;52.078;21.014;2023-03-21T01:18:27;165641.22;;;7.21;100.00
45255;BME280;30989;52.078;21.014;2023-03-21T01:20:55;165642.56;;;7.21;100.00
45255;BME280;30989;52.078;21.014;2023-03-21T01:23:21;165635.88;;;7.19;100.00
45255;BME280;30989;52.078;21.014;2023-03-21T01:25:48;165634.53;;;7.18;100.00
45255;BME280;30989;52.078;21.014;2023-03-21T01:28:14;165619.84;;;7.13;100.00
45255;BME280;30989;52.078;21.014;2023-03-21T01:30:47;165623.84;;;7.14;100.00
45255;BME280;30989;52.078;21.014;2023-03-21T01:33:15;165626.53;;;7.15;100.00
45255;BME280;30989;52.078;21.014;2023-03-21T01:35:41;165626.53;;;7.15;100.00
45255;BME280;30989;52.078;21.014;2023-03-21T01:38:06;165605.16;;;7.07;100.00
45255;BME280;30989;52.078;21.014;2023-03-21T01:40:34;165618.50;;;7.12;100.00
45255;BME280;30989;52.078;21.014;2023-03-21T01:43:19;165613.16;;;7.10;100.00
45255;BME280;30989;52.078;21.014;2023-03-21T01:52:27;165586.44;;;7.00;100.00
45255;BME280;30989;52.078;21.014;2023-03-21T01:54:54;165582.44;;;6.98;100.00
45255;BME280;30989;52.078;21.014;2023-03-21T01:57:32;165567.72;;;6.93;100.00
45255;BME280;30989;52.078;21.014;2023-03-21T02:00:02;165579.75;;;6.97;100.00
45255;BME280;30989;52.078;21.014;2023-03-21T02:02:45;165581.09;;;6.98;100.00
45255;BME280;30989;52.078;21.014;2023-03-21T02:05:40;165578.44;;;6.97;100.00
45255;BME280;30989;52.078;21.014;2023-03-21T02:08:09;165567.72;;;6.93;100.00
45255;BME280;30989;52.078;21.014;2023-03-21T02:10:35;165555.72;;;6.88;100.00
45255;BME280;30989;52.078;21.014;2023-03-21T02:13:03;165559.72;;;6.90;100.00
45255;BME280;30989;52.078;21.014;2023-03-21T02:15:41;165545.03;;;6.84;100.00
45255;BME280;30989;52.078;21.014;2023-03-21T02:27:28;165515.63;;;6.73;100.00
45255;BME280;30989;52.078;21.014;2023-03-21T02:33:07;165514.28;;;6.72;100.00
45255;BME280;30989;52.078;21.014;2023-03-21T02:39:10;165500.94;;;6.67;100.00
45255;BME280;30989;52.078;21.014;2023-03-21T02:41:48;165503.59;;;6.68;100.00
45255;BME280;30989;52.078;21.014;2023-03-21T02:44:48;165500.94;;;6.67;100.00
45255;BME280;30989;52.078;21.014;2023-03-21T02:47:24;165500.94;;;6.67;100.00
45255;BME280;30989;52.078;21.014;2023-03-21T02:49:57;165502.28;;;6.68;100.00
45255;BME280;30989;52.078;21.014;2023-03-21T02:52:31;165506.28;;;6.69;100.00
45255;BME280;30989;52.078;21.014;2023-03-21T02:54:59;165506.28;;;6.69;100.00
45255;BME280;30989;52.078;21.014;2023-03-21T02:57:33;165506.28;;;6.69;100.00
45255;BME280;30989;52.078;21.014;2023-03-21T03:00:01;165503.59;;;6.68;100.00
45255;BME280;30989;52.078;21.014;2023-03-21T03:02:35;165510.28;;;6.71;100.00
45255;BME280;30989;52.078;21.014;2023-03-21T03:05:00;165504.94;;;6.69;100.00
45255;BME280;30989;52.078;21.014;2023-03-21T03:13:33;165524.97;;;6.76;100.00
45255;BME280;30989;52.078;21.014;2023-03-21T03:16:35;165541.00;;;6.83;100.00
45255;BME280;30989;52.078;21.014;2023-03-21T03:19:03;165551.69;;;6.87;100.00
45255;BME280;30989;52.078;21.014;2023-03-21T03:21:39;165554.38;;;6.88;100.00
45255;BME280;30989;52.078;21.014;2023-03-21T03:24:25;165565.06;;;6.92;100.00
45255;BME280;30989;52.078;21.014;2023-03-21T03:27:12;165570.41;;;6.94;100.00
45255;BME280;30989;52.078;21.014;2023-03-21T03:29:41;165565.06;;;6.92;100.00
45255;BME280;30989;52.078;21.014;2023-03-21T03:32:14;165578.44;;;6.97;100.00
45255;BME280;30989;52.078;21.014;2023-03-21T03:34:43;165585.09;;;6.99;100.00
45255;BME280;30989;52.078;21.014;2023-03-21T03:37:18;165571.75;;;6.94;100.00
45255;BME280;30989;52.078;21.014;2023-03-21T03:39:52;165586.44;;;7.00;100.00
45255;BME280;30989;52.078;21.014;2023-03-21T03:42:21;165590.44;;;7.01;100.00
45255;BME280;30989;52.078;21.014;2023-03-21T03:44:55;165582.44;;;6.98;100.00
45255;BME280;30989;52.078;21.014;2023-03-21T03:47:35;165577.09;;;6.96;100.00
45255;BME280;30989;52.078;21.014;2023-03-21T03:53:04;165569.06;;;6.93;100.00
45255;BME280;30989;52.078;21.014;2023-03-21T03:55:31;165571.75;;;6.94;100.00
45255;BME280;30989;52.078;21.014;2023-03-21T03:58:03;165562.38;;;6.91;100.00
45255;BME280;30989;52.078;21.014;2023-03-21T04:00:31;165570.41;;;6.94;100.00
45255;BME280;30989;52.078;21.014;2023-03-21T04:02:58;165579.75;;;6.97;100.00
45255;BME280;30989;52.078;21.014;2023-03-21T04:05:25;165574.41;;;6.95;100.00
45255;BME280;30989;52.078;21.014;2023-03-21T04:07:52;165581.09;;;6.98;100.00
45255;BME280;30989;52.078;21.014;2023-03-21T04:10:25;165579.75;;;6.97;100.00
45255;BME280;30989;52.078;21.014;2023-03-21T04:12:51;165573.09;;;6.95;100.00
45255;BME280;30989;52.078;21.014;2023-03-21T04:15:49;165569.06;;;6.93;100.00
45255;BME280;30989;52.078;21.014;2023-03-21T04:18:15;165566.41;;;6.92;100.00
45255;BME280;30989;52.078;21.014;2023-03-21T04:20:41;165543.69;;;6.84;100.00
45255;BME280;30989;52.078;21.014;2023-03-21T04:23:09;165559.72;;;6.90;100.00
45255;BME280;30989;52.078;21.014;2023-03-21T04:25:37;165549.03;;;6.86;100.00
45255;BME280;30989;52.078;21.014;2023-03-21T04:28:04;165557.03;;;6.89;100.00
45255;BME280;30989;52.078;21.014;2023-03-21T04:30:37;165565.06;;;6.92;100.00
45255;BME280;30989;52.078;21.014;2023-03-21T04:33:08;165563.72;;;6.91;100.00
45255;BME280;30989;52.078;21.014;2023-03-21T04:35:34;165570.41;;;6.94;100.00
45255;BME280;30989;52.078;21.014;2023-03-21T04:38:02;165567.72;;;6.93;100.00
45255;BME280;30989;52.078;21.014;2023-03-21T04:40:27;165545.03;;;6.84;100.00
45255;BME280;30989;52.078;21.014;2023-03-21T04:42:54;165566.41;;;6.92;100.00
45255;BME280;30989;52.078;21.014;2023-03-21T04:45:19;165559.72;;;6.90;100.00
45255;BME280;30989;52.078;21.014;2023-03-21T04:47:45;165561.06;;;6.90;100.00
45255;BME280;30989;52.078;21.014;2023-03-21T04:50:11;165555.72;;;6.88;100.00
45255;BME280;30989;52.078;21.014;2023-03-21T04:52:38;165563.72;;;6.91;100.00
45255;BME280;30989;52.078;21.014;2023-03-21T04:55:04;165545.03;;;6.84;100.00
45255;BME280;30989;52.078;21.014;2023-03-21T04:57:35;165527.66;;;6.77;100.00
45255;BME280;30989;52.078;21.014;2023-03-21T05:00:04;165549.03;;;6.86;100.00
45255;BME280;30989;52.078;21.014;2023-03-21T05:02:33;165549.03;;;6.86;100.00
45255;BME280;30989;52.078;21.014;2023-03-21T05:04:59;165543.69;;;6.84;100.00
45255;BME280;30989;52.078;21.014;2023-03-21T05:07:25;165531.66;;;6.79;100.00
45255;BME280;30989;52.078;21.014;2023-03-21T05:09:51;165538.34;;;6.82;100.00
45255;BME280;30989;52.078;21.014;2023-03-21T05:12:16;165549.03;;;6.86;100.00
45255;BME280;30989;52.078;21.014;2023-03-21T05:14:43;165550.38;;;6.86;100.00
45255;BME280;30989;52.078;21.014;2023-03-21T05:17:09;165545.03;;;6.84;100.00
45255;BME280;30989;52.078;21.014;2023-03-21T05:19:34;165559.72;;;6.90;100.00
45255;BME280;30989;52.078;21.014;2023-03-21T05:22:04;165559.72;;;6.90;100.00
45255;BME280;30989;52.078;21.014;2023-03-21T05:24:30;165543.69;;;6.84;100.00
45255;BME280;30989;52.078;21.014;2023-03-21T05:26:58;165563.72;;;6.91;100.00
45255;BME280;30989;52.078;21.014;2023-03-21T05:29:31;165554.38;;;6.88;100.00
45255;BME280;30989;52.078;21.014;2023-03-21T05:32:00;165554.38;;;6.88;100.00
45255;BME280;30989;52.078;21.014;2023-03-21T05:34:27;165562.38;;;6.91;100.00
45255;BME280;30989;52.078;21.014;2023-03-21T05:36:53;165569.06;;;6.93;100.00
45255;BME280;30989;52.078;21.014;2023-03-21T05:39:21;165563.72;;;6.91;100.00
45255;BME280;30989;52.078;21.014;2023-03-21T05:42:09;165566.41;;;6.92;100.00
45255;BME280;30989;52.078;21.014;2023-03-21T05:44:35;165573.09;;;6.95;100.00
45255;BME280;30989;52.078;21.014;2023-03-21T05:47:04;165578.44;;;6.97;100.00
45255;BME280;30989;52.078;21.014;2023-03-21T05:49:37;165581.09;;;6.98;100.00
45255;BME280;30989;52.078;21.014;2023-03-21T05:52:03;165583.78;;;6.99;100.00
45255;BME280;30989;52.078;21.014;2023-03-21T05:54:29;165575.75;;;6.96;100.00
45255;BME280;30989;52.078;21.014;2023-03-21T05:56:55;165569.06;;;6.93;100.00
45255;BME280;30989;52.078;21.014;2023-03-21T05:59:40;165565.06;;;6.92;100.00
45255;BME280;30989;52.078;21.014;2023-03-21T06:02:06;165550.38;;;6.86;100.00
45255;BME280;30989;52.078;21.014;2023-03-21T06:04:32;165570.41;;;6.94;100.00
45255;BME280;30989;52.078;21.014;2023-03-21T06:06:59;165578.44;;;6.97;100.00
45255;BME280;30989;52.078;21.014;2023-03-21T06:09:25;165601.16;;;7.05;100.00
45255;BME280;30989;52.078;21.014;2023-03-21T06:11:56;165595.78;;;7.03;100.00
45255;BME280;30989;52.078;21.014;2023-03-21T06:14:29;165594.47;;;7.03;100.00
45255;BME280;30989;52.078;21.014;2023-03-21T06:17:13;165609.16;;;7.08;100.00
45255;BME280;30989;52.078;21.014;2023-03-21T06:19:45;165605.16;;;7.07;100.00
45255;BME280;30989;52.078;21.014;2023-03-21T06:22:17;165610.50;;;7.09;100.00
45255;BME280;30989;52.078;21.014;2023-03-21T06:24:42;165615.84;;;7.11;100.00
45255;BME280;30989;52.078;21.014;2023-03-21T06:27:08;165613.16;;;7.10;100.00
45255;BME280;30989;52.078;21.014;2023-03-21T06:29:53;165597.13;;;7.04;100.00
45255;BME280;30989;52.078;21.014;2023-03-21T06:32:19;165623.84;;;7.14;100.00
45255;BME280;30989;52.078;21.014;2023-03-21T06:34:47;165631.88;;;7.17;100.00
45255;BME280;30989;52.078;21.014;2023-03-21T06:37:14;165634.53;;;7.18;100.00
45255;BME280;30989;52.078;21.014;2023-03-21T06:39:40;165641.22;;;7.21;100.00
45255;BME280;30989;52.078;21.014;2023-03-21T06:42:07;165639.91;;;7.20;100.00
45255;BME280;30989;52.078;21.014;2023-03-21T06:44:33;165642.56;;;7.21;100.00
45255;BME280;30989;52.078;21.014;2023-03-21T06:47:03;165635.88;;;7.19;100.00
45255;BME280;30989;52.078;21.014;2023-03-21T06:49:29;165635.88;;;7.19;100.00
45255;BME280;30989;52.078;21.014;2023-03-21T06:51:58;165631.88;;;7.17;100.00
45255;BME280;30989;52.078;21.014;2023-03-21T06:54:24;165634.53;;;7.18;100.00
45255;BME280;30989;52.078;21.014;2023-03-21T06:56:54;165642.56;;;7.21;100.00
45255;BME280;30989;52.078;21.014;2023-03-21T06:59:32;165639.91;;;7.20;100.00
45255;BME280;30989;52.078;21.014;2023-03-21T07:02:01;165655.94;;;7.26;100.00
45255;BME280;30989;52.078;21.014;2023-03-21T07:04:28;165639.91;;;7.20;100.00
45255;BME280;30989;52.078;21.014;2023-03-21T07:06:54;165642.56;;;7.21;100.00
45255;BME280;30989;52.078;21.014;2023-03-21T07:09:21;165639.91;;;7.20;100.00
45255;BME280;30989;52.078;21.014;2023-03-21T07:11:49;165642.56;;;7.21;100.00
45255;BME280;30989;52.078;21.014;2023-03-21T07:14:19;165634.53;;;7.18;100.00
45255;BME280;30989;52.078;21.014;2023-03-21T07:16:45;165634.53;;;7.18;100.00
45255;BME280;30989;52.078;21.014;2023-03-21T07:19:12;165641.22;;;7.21;100.00
45255;BME280;30989;52.078;21.014;2023-03-21T07:21:37;165642.56;;;7.21;100.00
45255;BME280;30989;52.078;21.014;2023-03-21T07:24:03;165645.25;;;7.22;100.00
45255;BME280;30989;52.078;21.014;2023-03-21T07:26:28;165667.97;;;7.31;100.00
45255;BME280;30989;52.078;21.014;2023-03-21T07:28:54;165669.28;;;7.31;100.00
45255;BME280;30989;52.078;21.014;2023-03-21T07:31:19;165673.31;;;7.33;100.00
45255;BME280;30989;52.078;21.014;2023-03-21T07:33:47;165669.28;;;7.31;100.00
45255;BME280;30989;52.078;21.014;2023-03-21T07:36:13;165649.25;;;7.24;100.00
45255;BME280;30989;52.078;21.014;2023-03-21T07:38:40;165653.25;;;7.25;100.00
45255;BME280;30989;52.078;21.014;2023-03-21T07:41:06;165650.59;;;7.24;100.00
45255;BME280;30989;52.078;21.014;2023-03-21T07:43:33;165657.25;;;7.27;100.00
45255;BME280;30989;52.078;21.014;2023-03-21T07:45:58;165666.63;;;7.30;100.00
45255;BME280;30989;52.078;21.014;2023-03-21T07:48:25;165667.97;;;7.31;100.00
45255;BME280;30989;52.078;21.014;2023-03-21T07:50:51;165677.31;;;7.34;100.00
45255;BME280;30989;52.078;21.014;2023-03-21T07:53:17;165674.63;;;7.33;100.00
45255;BME280;30989;52.078;21.014;2023-03-21T07:55:43;165669.28;;;7.31;100.00
45255;BME280;30989;52.078;21.014;2023-03-21T07:58:08;165667.97;;;7.31;100.00
45255;BME280;30989;52.078;21.014;2023-03-21T08:00:34;165680.00;;;7.35;100.00
45255;BME280;30989;52.078;21.014;2023-03-21T08:03:00;165698.69;;;7.42;100.00
45255;BME280;30989;52.078;21.014;2023-03-21T08:05:29;165730.78;;;7.55;100.00
45255;BME280;30989;52.078;21.014;2023-03-21T08:07:55;165774.88;;;7.71;100.00
45255;BME280;30989;52.078;21.014;2023-03-21T08:10:20;165805.63;;;7.83;100.00
45255;BME280;30989;52.078;21.014;2023-03-21T08:12:46;165864.47;;;8.05;100.00
45255;BME280;30989;52.078;21.014;2023-03-21T08:15:13;165899.25;;;8.19;100.00
45255;BME280;30989;52.078;21.014;2023-03-21T08:17:39;165921.97;;;8.27;100.00
45255;BME280;30989;52.078;21.014;2023-03-21T08:20:08;165960.81;;;8.42;100.00
45255;BME280;30989;52.078;21.014;2023-03-21T08:22:35;165998.25;;;8.56;100.00
45255;BME280;30989;52.078;21.014;2023-03-21T08:25:02;166035.72;;;8.70;100.00
45255;BME280;30989;52.078;21.014;2023-03-21T08:27:29;166073.19;;;8.85;100.00
45255;BME280;30989;52.078;21.014;2023-03-21T08:29:56;166074.50;;;8.85;100.00
45255;BME280;30989;52.078;21.014;2023-03-21T08:32:21;166079.88;;;8.87;100.00
45255;BME280;30989;52.078;21.014;2023-03-21T08:34:54;166069.16;;;8.83;100.00
45255;BME280;30989;52.078;21.014;2023-03-21T08:37:20;166070.50;;;8.84;100.00
45255;BME280;30989;52.078;21.014;2023-03-21T08:39:45;166066.50;;;8.82;100.00
45255;BME280;30989;52.078;21.014;2023-03-21T08:42:11;166065.16;;;8.82;100.00
45255;BME280;30989;52.078;21.014;2023-03-21T08:44:36;166051.78;;;8.77;100.00
45255;BME280;30989;52.078;21.014;2023-03-21T08:47:04;166035.72;;;8.70;100.00
45255;BME280;30989;52.078;21.014;2023-03-21T08:49:29;166041.06;;;8.72;100.00
45255;BME280;30989;52.078;21.014;2023-03-21T08:51:55;166051.78;;;8.77;100.00
45255;BME280;30989;52.078;21.014;2023-03-21T08:54:21;166093.25;;;8.92;100.00
45255;BME280;30989;52.078;21.014;2023-03-21T08:56:47;166109.28;;;8.98;100.00
45255;BME280;30989;52.078;21.014;2023-03-21T08:59:13;166126.69;;;9.05;100.00
45255;BME280;30989;52.078;21.014;2023-03-21T09:01:39;166158.81;;;9.17;100.00
45255;BME280;30989;52.078;21.014;2023-03-21T09:04:05;166166.84;;;9.20;100.00
45255;BME280;30989;52.078;21.014;2023-03-21T09:06:37;166185.56;;;9.27;100.00
45255;BME280;30989;52.078;21.014;2023-03-21T09:09:05;166211.00;;;9.37;100.00
45255;BME280;30989;52.078;21.014;2023-03-21T09:11:32;166225.72;;;9.43;100.00
45255;BME280;30989;52.078;21.014;2023-03-21T09:13:58;166231.06;;;9.45;100.00
45255;BME280;30989;52.078;21.014;2023-03-21T09:16:24;166239.09;;;9.48;100.00
45255;BME280;30989;52.078;21.014;2023-03-21T09:18:49;166263.19;;;9.57;100.00
45255;BME280;30989;52.078;21.014;2023-03-21T09:21:20;166281.94;;;9.64;100.00
45255;BME280;30989;52.078;21.014;2023-03-21T09:23:48;166284.59;;;9.65;100.00
45255;BME280;30989;52.078;21.014;2023-03-21T09:26:15;166252.47;;;9.53;100.00
45255;BME280;30989;52.078;21.014;2023-03-21T09:28:41;166261.84;;;9.56;100.00
45255;BME280;30989;52.078;21.014;2023-03-21T09:31:07;166276.56;;;9.62;100.00
45255;BME280;30989;52.078;21.014;2023-03-21T09:33:35;166247.13;;;9.51;100.00
45255;BME280;30989;52.078;21.014;2023-03-21T09:36:02;166224.38;;;9.42;100.00
45255;BME280;30989;52.078;21.014;2023-03-21T09:38:31;166220.38;;;9.41;100.00
45255;BME280;30989;52.078;21.014;2023-03-21T09:41:24;166206.97;;;9.35;100.00
45255;BME280;30989;52.078;21.014;2023-03-21T09:47:20;166257.84;;;9.55;100.00
45255;BME280;30989;52.078;21.014;2023-03-21T09:49:57;166315.41;;;9.77;100.00
45255;BME280;30989;52.078;21.014;2023-03-21T09:52:28;166359.56;;;9.93;100.00
45255;BME280;30989;52.078;21.014;2023-03-21T09:54:57;166381.00;;;10.01;100.00
45255;BME280;30989;52.078;21.014;2023-03-21T09:59:57;166437.28;;;10.23;100.00
45255;BME280;30989;52.078;21.014;2023-03-21T10:04:58;166413.13;;;10.14;100.00
45255;BME280;30989;52.078;21.014;2023-03-21T10:07:26;166405.09;;;10.11;100.00
45255;BME280;30989;52.078;21.014;2023-03-21T10:09:57;166387.69;;;10.04;100.00
45255;BME280;30989;52.078;21.014;2023-03-21T10:12:25;166367.59;;;9.96;100.00
45255;BME280;30989;52.078;21.014;2023-03-21T10:14:56;166316.72;;;9.77;100.00
45255;BME280;30989;52.078;21.014;2023-03-21T10:17:33;166319.41;;;9.78;100.00
45255;BME280;30989;52.078;21.014;2023-03-21T10:22:43;166273.91;;;9.61;100.00
45255;BME280;30989;52.078;21.014;2023-03-21T10:25:15;166281.94;;;9.64;100.00
45255;BME280;30989;52.078;21.014;2023-03-21T10:27:41;166268.53;;;9.59;100.00
45255;BME280;30989;52.078;21.014;2023-03-21T10:30:08;166220.38;;;9.41;100.00
45255;BME280;30989;52.078;21.014;2023-03-21T10:32:43;166158.81;;;9.17;100.00
45255;BME280;30989;52.078;21.014;2023-03-21T10:35:12;166095.91;;;8.93;100.00
45255;BME280;30989;52.078;21.014;2023-03-21T10:37:38;166043.75;;;8.73;100.00
45255;BME280;30989;52.078;21.014;2023-03-21T10:40:04;165966.16;;;8.44;100.00
45255;BME280;30989;52.078;21.014;2023-03-21T10:42:32;165925.97;;;8.29;100.00
45255;BME280;30989;52.078;21.014;2023-03-21T10:45:00;165875.16;;;8.09;100.00
45255;BME280;30989;52.078;21.014;2023-03-21T10:47:31;165872.50;;;8.08;100.00
45255;BME280;30989;52.078;21.014;2023-03-21T10:50:01;165867.16;;;8.06;100.00
45255;BME280;30989;52.078;21.014;2023-03-21T10:52:29;165868.47;;;8.07;100.00
45255;BME280;30989;52.078;21.014;2023-03-21T10:55:14;165875.16;;;8.09;100.00
45255;BME280;30989;52.078;21.014;2023-03-21T10:57:41;165888.53;;;8.15;100.00
45255;BME280;30989;52.078;21.014;2023-03-21T11:00:09;165917.97;;;8.26;100.00
45255;BME280;30989;52.078;21.014;2023-03-21T11:02:47;165971.50;;;8.46;100.00
45255;BME280;30989;52.078;21.014;2023-03-21T11:05:21;166021.00;;;8.65;100.00
45255;BME280;30989;52.078;21.014;2023-03-21T11:07:58;166053.09;;;8.77;100.00
45255;BME280;30989;52.078;21.014;2023-03-21T11:10:31;166074.50;;;8.85;100.00
45255;BME280;30989;52.078;21.014;2023-03-21T11:13:02;166059.78;;;8.80;100.00
45255;BME280;30989;52.078;21.014;2023-03-21T11:15:30;166077.19;;;8.86;100.00
45255;BME280;30989;52.078;21.014;2023-03-21T11:17:57;166038.41;;;8.71;100.00
45255;BME280;30989;52.078;21.014;2023-03-21T11:20:23;166031.69;;;8.69;100.00
45255;BME280;30989;52.078;21.014;2023-03-21T11:22:48;165990.25;;;8.53;100.00
45255;BME280;30989;52.078;21.014;2023-03-21T11:25:21;165992.91;;;8.54;100.00
45255;BME280;30989;52.078;21.014;2023-03-21T11:27:50;165995.59;;;8.55;100.00
45255;BME280;30989;52.078;21.014;2023-03-21T11:30:21;166004.94;;;8.59;100.00
45255;BME280;30989;52.078;21.014;2023-03-21T11:32:55;166014.31;;;8.62;100.00
45255;BME280;30989;52.078;21.014;2023-03-21T11:35:24;166019.66;;;8.64;100.00
45255;BME280;30989;52.078;21.014;2023-03-21T11:37:55;166015.66;;;8.63;100.00
45255;BME280;30989;52.078;21.014;2023-03-21T11:43:34;165990.25;;;8.53;100.00
45255;BME280;30989;52.078;21.014;2023-03-21T11:45:34;166025.00;;;8.66;100.00
45255;BME280;30989;52.078;21.014;2023-03-21T11:48:04;166059.78;;;8.80;100.00
45255;BME280;30989;52.078;21.014;2023-03-21T11:50:44;166097.25;;;8.94;100.00
45255;BME280;30989;52.078;21.014;2023-03-21T11:53:27;166166.84;;;9.20;100.00
45255;BME280;30989;52.078;21.014;2023-03-21T12:07:03;166659.66;;;11.07;100.00
45255;BME280;30989;52.078;21.014;2023-03-21T12:09:40;166714.59;;;11.28;100.00
45255;BME280;30989;52.078;21.014;2023-03-21T12:17:42;166686.47;;;11.17;100.00
45255;BME280;30989;52.078;21.014;2023-03-21T12:26:09;166517.69;;;10.53;100.00
45255;BME280;30989;52.078;21.014;2023-03-21T12:39:45;166161.47;;;9.18;100.00
45255;BME280;30989;52.078;21.014;2023-03-21T12:42:18;166110.63;;;8.99;100.00
45255;BME280;30989;52.078;21.014;2023-03-21T12:44:52;166079.88;;;8.87;100.00
45255;BME280;30989;52.078;21.014;2023-03-21T12:47:23;166065.16;;;8.82;100.00
45255;BME280;30989;52.078;21.014;2023-03-21T12:49:54;166057.13;;;8.79;100.00
45255;BME280;30989;52.078;21.014;2023-03-21T12:52:25;166065.16;;;8.82;100.00
45255;BME280;30989;52.078;21.014;2023-03-21T12:57:44;166087.88;;;8.90;100.00
45255;BME280;30989;52.078;21.014;2023-03-21T13:00:14;166103.94;;;8.96;100.00
45255;BME280;30989;52.078;21.014;2023-03-21T13:02:53;166133.38;;;9.08;100.00
45255;BME280;30989;52.078;21.014;2023-03-21T13:07:59;166231.06;;;9.45;100.00
45255;BME280;30989;52.078;21.014;2023-03-21T13:10:29;166312.72;;;9.76;100.00
45255;BME280;30989;52.078;21.014;2023-03-21T13:15:47;166405.09;;;10.11;100.00
45255;BME280;30989;52.078;21.014;2023-03-21T13:18:28;166411.78;;;10.13;100.00
45255;BME280;30989;52.078;21.014;2023-03-21T13:21:01;166417.16;;;10.15;100.00
45255;BME280;30989;52.078;21.014;2023-03-21T13:23:34;166383.66;;;10.02;100.00
45255;BME280;30989;52.078;21.014;2023-03-21T13:26:01;166366.28;;;9.96;100.00
45255;BME280;30989;52.078;21.014;2023-03-21T13:28:30;166338.16;;;9.85;100.00
45255;BME280;30989;52.078;21.014;2023-03-21T13:31:17;166299.34;;;9.70;100.00
45255;BME280;30989;52.078;21.014;2023-03-21T13:33:48;166236.41;;;9.47;100.00
45255;BME280;30989;52.078;21.014;2023-03-21T13:36:21;166166.84;;;9.20;100.00
45255;BME280;30989;52.078;21.014;2023-03-21T13:38:49;166102.59;;;8.96;100.00
45255;BME280;30989;52.078;21.014;2023-03-21T13:41:17;166057.13;;;8.79;100.00
45255;BME280;30989;52.078;21.014;2023-03-21T13:56:26;166107.97;;;8.98;100.00
45255;BME280;30989;52.078;21.014;2023-03-21T13:59:00;166164.16;;;9.19;100.00
45255;BME280;30989;52.078;21.014;2023-03-21T14:09:20;166753.47;;;11.43;100.00
45255;BME280;30989;52.078;21.014;2023-03-21T14:11:49;167197.31;;;13.11;100.00
45255;BME280;30989;52.078;21.014;2023-03-21T14:14:18;167547.66;;;14.43;100.00
45255;BME280;30989;52.078;21.014;2023-03-21T14:16:44;167691.34;;;14.98;93.46
45255;BME280;30989;52.078;21.014;2023-03-21T14:19:10;167661.78;;;14.87;93.40
45255;BME280;30989;52.078;21.014;2023-03-21T14:21:36;167553.03;;;14.45;88.24
45255;BME280;30989;52.078;21.014;2023-03-21T14:24:03;167426.81;;;13.98;91.79
45255;BME280;30989;52.078;21.014;2023-03-21T14:26:32;167299.31;;;13.49;89.08
45255;BME280;30989;52.078;21.014;2023-03-21T14:29:01;167206.69;;;13.14;92.37
45255;BME280;30989;52.078;21.014;2023-03-21T14:31:27;167186.56;;;13.07;90.54
45255;BME280;30989;52.078;21.014;2023-03-21T14:33:56;167136.94;;;12.88;93.01
45255;BME280;30989;52.078;21.014;2023-03-21T14:36:25;167119.50;;;12.81;92.42
45255;BME280;30989;52.078;21.014;2023-03-21T14:39:01;167145.00;;;12.91;93.82
45255;BME280;30989;52.078;21.014;2023-03-21T14:41:29;167209.38;;;13.15;92.78